createdAt,value
2019-03-10T00:00:03.070Z,8.16
2019-03-10T00:01:03.060Z,8.10
2019-03-10T00:02:03.114Z,8.16
2019-03-10T00:03:03.046Z,8.10
2019-03-10T00:04:03.016Z,8.14
2019-03-10T00:05:03.003Z,8.12
2019-03-10T00:06:02.998Z,8.16
2019-03-10T00:07:02.986Z,8.16
2019-03-10T00:08:03.012Z,8.17
2019-03-10T00:09:02.959Z,8.19
2019-03-10T00:10:02.947Z,8.20
2019-03-10T00:11:02.936Z,8.13
2019-03-10T00:12:02.925Z,8.12
2019-03-10T00:13:02.920Z,7.96
2019-03-10T00:14:02.956Z,8.05
2019-03-10T00:15:02.891Z,8.13
2019-03-10T00:16:02.882Z,8.16
2019-03-10T00:17:02.873Z,8.09
2019-03-10T00:18:02.860Z,8.06
2019-03-10T00:19:02.852Z,7.98
2019-03-10T00:20:02.911Z,8.02
2019-03-10T00:21:02.911Z,8.05
2019-03-10T00:22:02.819Z,7.99
2019-03-10T00:23:02.812Z,7.95
2019-03-10T00:24:02.809Z,7.99
2019-03-10T00:25:02.788Z,7.98
2019-03-10T00:26:02.822Z,7.94
2019-03-10T00:27:02.770Z,8.01
2019-03-10T00:28:02.765Z,7.96
2019-03-10T00:29:02.742Z,7.98
2019-03-10T00:30:02.732Z,8.02
2019-03-10T00:31:02.722Z,7.98
2019-03-10T00:32:02.767Z,7.95
2019-03-10T00:33:02.697Z,7.95
2019-03-10T00:34:02.690Z,8.02
2019-03-10T00:35:02.679Z,7.99
2019-03-10T00:36:02.666Z,7.98
2019-03-10T00:37:02.655Z,8.01
2019-03-10T00:38:02.713Z,7.98
2019-03-10T00:39:02.640Z,7.99
2019-03-10T00:40:02.621Z,7.81
2019-03-10T00:41:02.614Z,7.88
2019-03-10T00:42:02.608Z,7.96
2019-03-10T00:43:02.593Z,8.01
2019-03-10T00:44:02.643Z,8.02
2019-03-10T00:45:02.571Z,8.01
2019-03-10T00:46:02.558Z,7.96
2019-03-10T00:47:02.556Z,7.92
2019-03-10T00:48:02.547Z,7.92
2019-03-10T00:49:02.530Z,7.88
2019-03-10T00:50:02.565Z,7.88
2019-03-10T00:51:02.503Z,7.78
2019-03-10T00:52:02.491Z,7.84
2019-03-10T00:53:02.484Z,7.76
2019-03-10T00:54:02.468Z,7.86
2019-03-10T00:55:02.465Z,7.73
2019-03-10T00:56:02.517Z,7.74
2019-03-10T00:57:02.437Z,7.76
2019-03-10T00:58:02.430Z,7.77
2019-03-10T00:59:02.421Z,7.69
2019-03-10T01:00:02.408Z,7.64
2019-03-10T01:01:02.394Z,7.64
2019-03-10T01:02:02.426Z,7.76
2019-03-10T01:03:02.375Z,7.61
2019-03-10T01:04:02.362Z,7.66
2019-03-10T01:05:02.357Z,7.74
2019-03-10T01:06:02.340Z,7.77
2019-03-10T01:07:02.328Z,7.57
2019-03-10T01:08:02.395Z,7.60
2019-03-10T01:09:02.317Z,7.64
2019-03-10T01:10:02.299Z,7.78
2019-03-10T01:11:02.288Z,7.64
2019-03-10T01:12:02.279Z,7.80
2019-03-10T01:13:02.265Z,7.69
2019-03-10T01:14:02.314Z,7.76
2019-03-10T01:15:02.246Z,7.83
2019-03-10T01:16:02.236Z,7.78
2019-03-10T01:17:02.223Z,7.74
2019-03-10T01:18:02.211Z,7.62
2019-03-10T01:19:02.203Z,7.76
2019-03-10T01:20:02.237Z,7.66
2019-03-10T01:21:02.180Z,7.69
2019-03-10T01:22:02.168Z,7.62
2019-03-10T01:23:02.160Z,7.73
2019-03-10T01:24:02.151Z,7.76
2019-03-10T01:25:02.140Z,7.74
2019-03-10T01:26:02.181Z,7.71
2019-03-10T01:27:02.115Z,7.74
2019-03-10T01:28:02.109Z,7.80
2019-03-10T01:29:02.096Z,7.73
2019-03-10T01:30:02.082Z,7.76
2019-03-10T01:31:02.069Z,7.77
2019-03-10T01:32:02.122Z,7.62
2019-03-10T01:33:02.048Z,7.77
2019-03-10T01:34:02.040Z,7.60
2019-03-10T01:35:02.032Z,7.61
2019-03-10T01:36:02.014Z,7.62
2019-03-10T01:37:02.006Z,7.60
2019-03-10T01:38:02.030Z,7.64
2019-03-10T01:39:01.984Z,7.66
2019-03-10T01:40:01.976Z,7.57
2019-03-10T01:41:01.959Z,7.60
2019-03-10T01:42:01.949Z,7.55
2019-03-10T01:43:01.966Z,7.54
2019-03-10T01:44:01.990Z,7.49
2019-03-10T01:45:01.924Z,7.49
2019-03-10T01:46:01.912Z,7.47
2019-03-10T01:47:01.900Z,7.43
2019-03-10T01:48:01.886Z,7.47
2019-03-10T01:49:01.875Z,7.40
2019-03-10T01:50:01.924Z,7.39
2019-03-10T01:51:01.852Z,7.46
2019-03-10T01:52:01.841Z,7.40
2019-03-10T01:53:01.829Z,7.49
2019-03-10T01:54:01.834Z,7.42
2019-03-10T01:55:01.828Z,7.40
2019-03-10T01:56:01.857Z,7.31
2019-03-10T01:57:01.807Z,7.31
2019-03-10T01:58:01.783Z,7.33
2019-03-10T01:59:01.766Z,7.31
2019-03-10T02:00:01.758Z,7.36
2019-03-10T02:01:01.746Z,7.39
2019-03-10T02:02:01.774Z,7.24
2019-03-10T02:03:01.748Z,7.25
2019-03-10T02:04:01.740Z,7.21
2019-03-10T02:05:01.706Z,7.26
2019-03-10T02:06:01.690Z,7.26
2019-03-10T02:07:01.684Z,7.25
2019-03-10T02:08:01.829Z,7.26
2019-03-10T02:09:01.717Z,7.21
2019-03-10T02:10:01.650Z,7.24
2019-03-10T02:11:01.636Z,7.25
2019-03-10T02:12:01.626Z,7.24
2019-03-10T02:13:01.615Z,7.25
2019-03-10T02:14:01.641Z,7.24
2019-03-10T02:15:01.605Z,7.26
2019-03-10T02:16:01.584Z,7.25
2019-03-10T02:17:01.572Z,7.36
2019-03-10T02:18:01.573Z,7.44
2019-03-10T02:19:01.554Z,7.57
2019-03-10T02:20:01.613Z,7.61
2019-03-10T02:21:01.549Z,7.62
2019-03-10T02:22:01.516Z,7.68
2019-03-10T02:23:01.509Z,7.74
2019-03-10T02:24:01.498Z,7.83
2019-03-10T02:25:01.492Z,7.77
2019-03-10T02:26:01.621Z,7.73
2019-03-10T02:27:01.480Z,7.66
2019-03-10T02:28:01.458Z,7.74
2019-03-10T02:29:01.444Z,7.74
2019-03-10T02:30:01.433Z,7.68
2019-03-10T02:31:01.420Z,7.66
2019-03-10T02:32:01.451Z,7.62
2019-03-10T02:33:01.416Z,7.66
2019-03-10T02:34:01.387Z,7.60
2019-03-10T02:35:01.384Z,7.58
2019-03-10T02:36:01.368Z,7.42
2019-03-10T02:37:01.358Z,7.50
2019-03-10T02:38:01.418Z,7.42
2019-03-10T02:39:01.359Z,7.46
2019-03-10T02:40:01.327Z,7.40
2019-03-10T02:41:01.313Z,7.37
2019-03-10T02:42:01.300Z,7.36
2019-03-10T02:43:01.297Z,7.33
2019-03-10T02:44:01.327Z,7.34
2019-03-10T02:45:01.293Z,7.40
2019-03-10T02:46:01.261Z,7.44
2019-03-10T02:47:01.246Z,7.57
2019-03-10T02:48:01.236Z,7.68
2019-03-10T02:49:01.231Z,7.74
2019-03-10T02:50:01.531Z,7.78
2019-03-10T02:51:01.209Z,7.77
2019-03-10T02:52:01.202Z,7.81
2019-03-10T02:53:01.200Z,7.83
2019-03-10T02:54:01.185Z,7.76
2019-03-10T02:55:01.176Z,7.74
2019-03-10T02:56:01.219Z,7.71
2019-03-10T02:57:01.143Z,7.76
2019-03-10T02:58:01.144Z,7.74
2019-03-10T02:59:01.119Z,7.77
2019-03-10T03:00:01.109Z,7.77
2019-03-10T03:01:01.118Z,7.62
2019-03-10T03:02:01.126Z,7.60
2019-03-10T03:03:01.073Z,7.60
2019-03-10T03:04:01.069Z,7.54
2019-03-10T03:05:01.055Z,7.61
2019-03-10T03:06:01.057Z,7.46
2019-03-10T03:07:01.071Z,7.52
2019-03-10T03:08:01.091Z,7.49
2019-03-10T03:09:01.012Z,7.39
2019-03-10T03:10:01.000Z,7.40
2019-03-10T03:11:00.992Z,7.40
2019-03-10T03:12:00.992Z,7.39
2019-03-10T03:13:00.968Z,7.31
2019-03-10T03:14:01.004Z,7.25
2019-03-10T03:15:00.944Z,7.28
2019-03-10T03:16:00.933Z,7.22
2019-03-10T03:17:00.923Z,7.19
2019-03-10T03:18:00.930Z,7.16
2019-03-10T03:19:00.898Z,7.15
2019-03-10T03:20:00.919Z,7.15
2019-03-10T03:21:00.882Z,7.07
2019-03-10T03:22:00.868Z,7.08
2019-03-10T03:23:00.865Z,7.07
2019-03-10T03:24:00.862Z,7.11
2019-03-10T03:25:00.837Z,7.04
2019-03-10T03:26:00.870Z,6.99
2019-03-10T03:27:02.594Z,7.03
2019-03-10T03:28:00.800Z,7.03
2019-03-10T03:29:00.794Z,6.97
2019-03-10T03:30:00.801Z,6.97
2019-03-10T03:31:00.768Z,6.93
2019-03-10T03:32:00.797Z,6.89
2019-03-10T03:33:00.759Z,6.88
2019-03-10T03:34:00.738Z,6.88
2019-03-10T03:35:01.053Z,6.91
2019-03-10T03:36:00.750Z,6.91
2019-03-10T03:37:00.707Z,6.92
2019-03-10T03:38:00.738Z,6.85
2019-03-10T03:39:00.699Z,6.89
2019-03-10T03:40:00.671Z,6.83
2019-03-10T03:41:00.667Z,6.89
2019-03-10T03:42:00.667Z,6.89
2019-03-10T03:43:00.641Z,6.86
2019-03-10T03:44:00.781Z,6.86
2019-03-10T03:45:00.665Z,6.89
2019-03-10T03:46:00.608Z,6.92
2019-03-10T03:47:00.610Z,6.88
2019-03-10T03:48:00.602Z,6.83
2019-03-10T03:49:00.575Z,6.86
2019-03-10T03:50:00.712Z,6.83
2019-03-10T03:51:00.557Z,6.83
2019-03-10T03:52:00.548Z,6.89
2019-03-10T03:53:00.539Z,6.79
2019-03-10T03:54:00.538Z,6.82
2019-03-10T03:55:00.518Z,6.81
2019-03-10T03:56:00.561Z,6.89
2019-03-10T03:57:00.493Z,6.79
2019-03-10T03:58:00.503Z,6.81
2019-03-10T03:59:00.470Z,6.81
2019-03-10T04:00:00.479Z,6.78
2019-03-10T04:01:00.447Z,6.79
2019-03-10T04:02:00.486Z,6.74
2019-03-10T04:03:00.427Z,6.70
2019-03-10T04:04:00.414Z,6.78
2019-03-10T04:05:00.544Z,6.73
2019-03-10T04:06:00.414Z,6.79
2019-03-10T04:07:00.382Z,6.71
2019-03-10T04:08:00.409Z,6.71
2019-03-10T04:09:00.365Z,6.63
2019-03-10T04:10:00.471Z,6.60
2019-03-10T04:11:00.336Z,6.67
2019-03-10T04:12:00.339Z,6.64
2019-03-10T04:13:00.315Z,6.63
2019-03-10T04:14:00.466Z,6.64
2019-03-10T04:15:00.498Z,6.64
2019-03-10T04:16:00.291Z,6.64
2019-03-10T04:17:00.292Z,6.64
2019-03-10T04:18:00.288Z,6.63
2019-03-10T04:19:00.259Z,6.60
2019-03-10T04:20:00.475Z,6.47
2019-03-10T04:21:00.230Z,6.49
2019-03-10T04:22:00.221Z,6.46
2019-03-10T04:23:00.210Z,6.50
2019-03-10T04:24:00.227Z,6.50
2019-03-10T04:25:00.436Z,6.50
2019-03-10T04:26:00.220Z,6.52
2019-03-10T04:27:00.166Z,6.50
2019-03-10T04:28:00.186Z,6.55
2019-03-10T04:29:00.145Z,6.55
2019-03-10T04:30:00.430Z,6.46
2019-03-10T04:31:00.120Z,6.50
2019-03-10T04:32:00.207Z,6.49
2019-03-10T04:33:00.103Z,6.50
2019-03-10T04:34:00.088Z,6.50
2019-03-10T04:35:00.183Z,6.50
2019-03-10T04:36:00.066Z,6.52
2019-03-10T04:37:00.076Z,6.53
2019-03-10T04:38:00.090Z,6.55
2019-03-10T04:39:00.032Z,6.52
2019-03-10T04:40:00.023Z,6.53
2019-03-10T04:41:00.023Z,6.52
2019-03-10T04:42:00.004Z,6.45
2019-03-10T04:43:00.001Z,6.52
2019-03-10T04:44:00.017Z,6.43
2019-03-10T04:44:59.971Z,6.52
2019-03-10T04:45:59.957Z,6.49
2019-03-10T04:46:59.953Z,6.50
2019-03-10T04:47:59.934Z,6.52
2019-03-10T04:48:59.935Z,6.43
2019-03-10T04:49:59.974Z,6.49
2019-03-10T04:50:59.903Z,6.46
2019-03-10T04:51:59.895Z,6.47
2019-03-10T04:52:59.881Z,6.34
2019-03-10T04:53:59.965Z,6.37
2019-03-10T04:54:59.859Z,6.35
2019-03-10T04:55:59.879Z,6.34
2019-03-10T04:56:59.861Z,6.34
2019-03-10T04:57:59.835Z,6.34
2019-03-10T04:58:59.815Z,6.38
2019-03-10T04:59:59.813Z,6.38
2019-03-10T05:00:59.798Z,6.25
2019-03-10T05:01:59.836Z,6.32
2019-03-10T05:02:59.773Z,6.31
2019-03-10T05:03:59.763Z,6.35
2019-03-10T05:04:59.778Z,6.28
2019-03-10T05:05:59.809Z,6.19
2019-03-10T05:06:59.733Z,6.30
2019-03-10T05:07:59.755Z,6.16
2019-03-10T05:08:59.715Z,6.21
2019-03-10T05:09:59.700Z,6.24
2019-03-10T05:10:59.689Z,6.25
2019-03-10T05:11:59.689Z,6.28
2019-03-10T05:12:59.668Z,6.25
2019-03-10T05:13:59.683Z,6.18
2019-03-10T05:14:59.643Z,6.18
2019-03-10T05:15:59.638Z,6.21
2019-03-10T05:16:59.622Z,6.19
2019-03-10T05:17:59.641Z,6.19
2019-03-10T05:18:59.603Z,6.21
2019-03-10T05:19:59.628Z,6.19
2019-03-10T05:20:59.577Z,6.32
2019-03-10T05:21:59.572Z,6.16
2019-03-10T05:22:59.559Z,6.25
2019-03-10T05:23:59.557Z,6.18
2019-03-10T05:24:59.538Z,6.15
2019-03-10T05:25:59.579Z,6.18
2019-03-10T05:26:59.512Z,6.30
2019-03-10T05:27:59.503Z,6.31
2019-03-10T05:28:59.493Z,6.27
2019-03-10T05:29:59.486Z,6.18
2019-03-10T05:30:59.469Z,6.24
2019-03-10T05:31:59.489Z,6.18
2019-03-10T05:32:59.448Z,6.27
2019-03-10T05:33:59.444Z,6.18
2019-03-10T05:34:59.431Z,6.25
2019-03-10T05:35:59.423Z,6.28
2019-03-10T05:36:59.411Z,6.12
2019-03-10T05:37:59.446Z,6.15
2019-03-10T05:38:59.388Z,6.21
2019-03-10T05:39:59.376Z,6.16
2019-03-10T05:40:59.361Z,6.25
2019-03-10T05:41:59.388Z,6.27
2019-03-10T05:42:59.341Z,6.18
2019-03-10T05:43:59.536Z,6.16
2019-03-10T05:44:59.335Z,6.19
2019-03-10T05:45:59.309Z,6.21
2019-03-10T05:46:59.298Z,6.15
2019-03-10T05:47:59.317Z,6.18
2019-03-10T05:48:59.276Z,6.16
2019-03-10T05:49:59.298Z,6.27
2019-03-10T05:50:59.255Z,6.15
2019-03-10T05:51:59.246Z,6.19
2019-03-10T05:53:00.785Z,6.18
2019-03-10T05:53:59.248Z,6.21
2019-03-10T05:54:59.214Z,6.21
2019-03-10T05:55:59.255Z,6.25
2019-03-10T05:56:59.191Z,6.30
2019-03-10T05:57:59.183Z,6.18
2019-03-10T05:58:59.170Z,6.13
2019-03-10T05:59:59.173Z,6.16
2019-03-10T06:00:59.150Z,6.15
2019-03-10T06:01:59.188Z,6.24
2019-03-10T06:02:59.125Z,6.21
2019-03-10T06:03:59.115Z,6.18
2019-03-10T06:04:59.108Z,6.16
2019-03-10T06:05:59.123Z,6.19
2019-03-10T06:06:59.091Z,6.18
2019-03-10T06:07:59.100Z,6.16
2019-03-10T06:08:59.064Z,6.16
2019-03-10T06:09:59.049Z,6.18
2019-03-10T06:10:59.041Z,6.25
2019-03-10T06:11:59.038Z,6.13
2019-03-10T06:12:59.024Z,6.27
2019-03-10T06:13:59.064Z,6.16
2019-03-10T06:14:58.996Z,6.30
2019-03-10T06:15:58.987Z,6.19
2019-03-10T06:16:58.972Z,6.15
2019-03-10T06:17:58.981Z,6.19
2019-03-10T06:18:58.952Z,6.27
2019-03-10T06:19:58.990Z,6.24
2019-03-10T06:20:58.934Z,6.15
2019-03-10T06:21:58.937Z,6.18
2019-03-10T06:22:58.913Z,6.15
2019-03-10T06:23:58.915Z,6.21
2019-03-10T06:24:58.894Z,6.13
2019-03-10T06:25:58.930Z,6.19
2019-03-10T06:26:58.871Z,6.15
2019-03-10T06:27:58.856Z,6.18
2019-03-10T06:28:58.849Z,6.18
2019-03-10T06:29:58.858Z,6.16
2019-03-10T06:30:58.890Z,6.28
2019-03-10T06:31:58.868Z,6.30
2019-03-10T06:32:58.805Z,6.27
2019-03-10T06:33:58.791Z,6.32
2019-03-10T06:34:58.780Z,6.31
2019-03-10T06:35:58.822Z,6.27
2019-03-10T06:36:58.762Z,6.38
2019-03-10T06:37:58.880Z,6.37
2019-03-10T06:38:58.736Z,6.32
2019-03-10T06:39:58.724Z,6.31
2019-03-10T06:40:58.715Z,6.38
2019-03-10T06:41:58.719Z,6.32
2019-03-10T06:42:58.692Z,6.30
2019-03-10T06:43:58.731Z,6.30
2019-03-10T06:44:58.699Z,6.45
2019-03-10T06:45:58.665Z,6.45
2019-03-10T06:46:58.670Z,6.42
2019-03-10T06:47:58.643Z,6.38
2019-03-10T06:48:58.629Z,6.49
2019-03-10T06:49:58.695Z,6.49
2019-03-10T06:50:58.608Z,6.50
2019-03-10T06:51:58.594Z,6.50
2019-03-10T06:52:58.593Z,6.47
2019-03-10T06:53:58.579Z,6.60
2019-03-10T06:54:58.566Z,6.63
2019-03-10T06:55:58.618Z,6.57
2019-03-10T06:56:58.545Z,6.64
2019-03-10T06:57:58.529Z,6.67
2019-03-10T06:58:58.525Z,6.65
2019-03-10T06:59:58.513Z,6.65
2019-03-10T07:01:07.463Z,6.71
2019-03-10T07:01:58.492Z,6.79
2019-03-10T07:02:58.509Z,6.73
2019-03-10T07:03:58.467Z,6.82
2019-03-10T07:04:58.456Z,6.82
2019-03-10T07:05:58.462Z,6.89
2019-03-10T07:06:58.473Z,6.86
2019-03-10T07:07:58.422Z,7.04
2019-03-10T07:08:58.415Z,6.99
2019-03-10T07:09:58.402Z,7.25
2019-03-10T07:10:58.402Z,7.40
2019-03-10T07:11:58.382Z,7.66
2019-03-10T07:12:58.419Z,7.91
2019-03-10T07:13:58.409Z,8.04
2019-03-10T07:14:58.348Z,8.29
2019-03-10T07:15:58.340Z,8.42
2019-03-10T07:16:58.328Z,8.57
2019-03-10T07:17:58.317Z,8.63
2019-03-10T07:18:58.359Z,8.77
2019-03-10T07:19:58.312Z,8.89
2019-03-10T07:20:58.322Z,8.96
2019-03-10T07:21:58.302Z,9.06
2019-03-10T07:22:58.275Z,9.15
2019-03-10T07:23:58.258Z,9.14
2019-03-10T07:24:58.312Z,9.18
2019-03-10T07:25:58.239Z,9.18
2019-03-10T07:26:58.225Z,9.22
2019-03-10T07:27:58.259Z,9.34
2019-03-10T07:28:58.206Z,9.33
2019-03-10T07:29:58.215Z,9.34
2019-03-10T07:30:58.208Z,9.45
2019-03-10T07:31:58.178Z,9.42
2019-03-10T07:33:05.863Z,9.44
2019-03-10T07:34:07.475Z,9.45
2019-03-10T07:34:58.163Z,9.57
2019-03-10T07:36:08.289Z,9.57
2019-03-10T07:36:58.119Z,9.52
2019-03-10T07:37:58.144Z,9.69
2019-03-10T07:38:58.284Z,9.69
2019-03-10T07:40:01.635Z,9.84
2019-03-10T07:41:00.624Z,9.88
2019-03-10T07:41:59.599Z,9.85
2019-03-10T07:42:58.044Z,9.99
2019-03-10T07:43:58.074Z,9.99
2019-03-10T07:45:07.632Z,10.06
2019-03-10T07:45:58.103Z,10.06
2019-03-10T07:46:57.998Z,10.14
2019-03-10T07:47:58.080Z,10.20
2019-03-10T07:48:58.013Z,10.16
2019-03-10T07:49:57.971Z,10.21
2019-03-10T07:50:57.958Z,10.31
2019-03-10T07:51:57.951Z,10.34
2019-03-10T07:52:57.935Z,10.41
2019-03-10T07:53:58.012Z,10.54
2019-03-10T07:54:57.916Z,10.64
2019-03-10T07:55:57.930Z,10.68
2019-03-10T07:56:57.902Z,10.67
2019-03-10T07:57:57.928Z,10.67
2019-03-10T07:58:57.877Z,10.75
2019-03-10T07:59:58.003Z,10.94
2019-03-10T08:00:57.886Z,11.15
2019-03-10T08:01:57.835Z,11.36
2019-03-10T08:02:57.827Z,11.49
2019-03-10T08:03:57.832Z,11.55
2019-03-10T08:04:57.814Z,11.55
2019-03-10T08:05:57.830Z,11.70
2019-03-10T08:06:57.786Z,11.85
2019-03-10T08:07:57.767Z,11.93
2019-03-10T08:08:57.759Z,12.00
2019-03-10T08:09:57.750Z,11.95
2019-03-10T08:10:57.759Z,12.03
2019-03-10T08:11:57.755Z,12.13
2019-03-10T08:12:57.722Z,12.18
2019-03-10T08:13:57.755Z,12.21
2019-03-10T08:14:57.692Z,12.22
2019-03-10T08:15:57.748Z,12.25
2019-03-10T08:16:57.693Z,12.33
2019-03-10T08:17:57.701Z,12.25
2019-03-10T08:18:57.694Z,12.26
2019-03-10T08:19:58.503Z,12.25
2019-03-10T08:20:57.623Z,12.23
2019-03-10T08:21:57.625Z,12.17
2019-03-10T08:22:59.201Z,12.11
2019-03-10T08:23:57.633Z,12.14
2019-03-10T08:24:57.582Z,12.11
2019-03-10T08:25:57.580Z,12.10
2019-03-10T08:26:57.570Z,12.07
2019-03-10T08:28:01.492Z,12.07
2019-03-10T08:28:57.551Z,12.11
2019-03-10T08:29:57.569Z,12.13
2019-03-10T08:30:57.538Z,12.26
2019-03-10T08:31:57.512Z,12.32
2019-03-10T08:32:57.507Z,12.29
2019-03-10T08:33:57.485Z,12.29
2019-03-10T08:34:57.570Z,12.40
2019-03-10T08:35:57.713Z,12.46
2019-03-10T08:36:57.453Z,12.38
2019-03-10T08:37:57.446Z,12.44
2019-03-10T08:38:57.466Z,12.32
2019-03-10T08:39:57.426Z,12.35
2019-03-10T08:40:57.605Z,12.30
2019-03-10T08:41:57.449Z,12.23
2019-03-10T08:42:57.387Z,12.17
2019-03-10T08:43:57.423Z,12.21
2019-03-10T08:44:57.377Z,12.30
2019-03-10T08:45:57.365Z,12.23
2019-03-10T08:46:57.386Z,12.22
2019-03-10T08:47:58.270Z,12.23
2019-03-10T08:48:57.327Z,12.40
2019-03-10T08:49:57.316Z,12.41
2019-03-10T08:50:57.307Z,12.38
2019-03-10T08:51:57.288Z,12.35
2019-03-10T08:52:57.288Z,12.36
2019-03-10T08:53:57.318Z,12.46
2019-03-10T08:54:57.260Z,12.38
2019-03-10T08:55:57.246Z,12.48
2019-03-10T08:56:57.241Z,12.43
2019-03-10T08:57:57.228Z,12.46
2019-03-10T08:58:57.217Z,12.50
2019-03-10T08:59:57.268Z,12.62
2019-03-10T09:00:57.194Z,12.68
2019-03-10T09:01:57.188Z,12.77
2019-03-10T09:02:57.174Z,12.73
2019-03-10T09:03:57.172Z,12.93
2019-03-10T09:04:57.155Z,12.95
2019-03-10T09:05:57.185Z,12.93
2019-03-10T09:06:57.134Z,12.98
2019-03-10T09:07:57.119Z,12.99
2019-03-10T09:08:57.116Z,12.95
2019-03-10T09:09:57.100Z,13.06
2019-03-10T09:10:57.085Z,13.20
2019-03-10T09:11:57.168Z,13.20
2019-03-10T09:12:57.083Z,13.29
2019-03-10T09:13:57.052Z,13.29
2019-03-10T09:14:57.042Z,13.26
2019-03-10T09:15:57.049Z,13.42
2019-03-10T09:16:57.022Z,13.43
2019-03-10T09:17:57.044Z,13.43
2019-03-10T09:18:57.007Z,13.51
2019-03-10T09:19:57.025Z,13.60
2019-03-10T09:20:57.005Z,13.54
2019-03-10T09:21:57.137Z,13.51
2019-03-10T09:22:56.973Z,13.55
2019-03-10T09:23:56.985Z,13.65
2019-03-10T09:24:56.929Z,13.63
2019-03-10T09:25:56.946Z,13.53
2019-03-10T09:26:56.909Z,13.53
2019-03-10T09:27:56.936Z,13.54
2019-03-10T09:28:56.885Z,13.49
2019-03-10T09:29:56.919Z,13.55
2019-03-10T09:30:56.881Z,13.55
2019-03-10T09:31:56.847Z,13.57
2019-03-10T09:32:56.839Z,13.53
2019-03-10T09:33:56.825Z,13.54
2019-03-10T09:34:56.818Z,13.49
2019-03-10T09:35:56.839Z,13.49
2019-03-10T09:36:56.825Z,13.35
2019-03-10T09:37:56.785Z,13.24
2019-03-10T09:38:56.771Z,13.27
2019-03-10T09:39:56.760Z,13.17
2019-03-10T09:40:56.750Z,13.23
2019-03-10T09:41:56.766Z,13.02
2019-03-10T09:42:56.774Z,13.16
2019-03-10T09:43:56.712Z,13.19
2019-03-10T09:44:56.701Z,13.16
2019-03-10T09:45:56.690Z,13.06
2019-03-10T09:46:56.677Z,13.08
2019-03-10T09:47:56.747Z,13.05
2019-03-10T09:48:56.684Z,13.14
2019-03-10T09:49:56.649Z,13.14
2019-03-10T09:50:56.636Z,13.23
2019-03-10T09:51:56.627Z,13.38
2019-03-10T09:52:56.615Z,13.57
2019-03-10T09:53:56.638Z,13.58
2019-03-10T09:54:56.618Z,13.71
2019-03-10T09:55:56.577Z,13.83
2019-03-10T09:56:56.569Z,13.79
2019-03-10T09:57:56.557Z,13.75
2019-03-10T09:58:56.544Z,13.79
2019-03-10T09:59:56.691Z,13.72
2019-03-10T10:00:56.546Z,13.83
2019-03-10T10:01:56.524Z,13.78
2019-03-10T10:02:56.497Z,13.64
2019-03-10T10:03:56.486Z,13.61
2019-03-10T10:04:56.484Z,13.53
2019-03-10T10:05:56.527Z,13.75
2019-03-10T10:06:56.489Z,13.93
2019-03-10T10:07:56.440Z,13.94
2019-03-10T10:08:56.437Z,14.21
2019-03-10T10:09:56.419Z,14.41
2019-03-10T10:10:56.417Z,14.33
2019-03-10T10:11:56.589Z,14.23
2019-03-10T10:12:56.412Z,14.05
2019-03-10T10:13:56.438Z,13.79
2019-03-10T10:14:56.366Z,13.68
2019-03-10T10:15:56.357Z,13.60
2019-03-10T10:16:56.343Z,13.46
2019-03-10T10:17:56.377Z,13.27
2019-03-10T10:18:56.335Z,13.09
2019-03-10T10:19:56.311Z,12.95
2019-03-10T10:20:56.302Z,12.87
2019-03-10T10:21:56.290Z,12.86
2019-03-10T10:22:56.275Z,12.80
2019-03-10T10:23:56.327Z,12.65
2019-03-10T10:24:56.274Z,12.63
2019-03-10T10:25:56.241Z,12.65
2019-03-10T10:26:56.229Z,12.63
2019-03-10T10:27:56.275Z,12.69
2019-03-10T10:28:56.208Z,12.71
2019-03-10T10:29:56.242Z,12.81
2019-03-10T10:30:56.210Z,12.86
2019-03-10T10:31:56.189Z,12.93
2019-03-10T10:32:56.167Z,13.06
2019-03-10T10:33:56.154Z,13.23
2019-03-10T10:34:56.141Z,13.53
2019-03-10T10:35:56.189Z,13.57
2019-03-10T10:36:56.145Z,13.83
2019-03-10T10:37:56.110Z,13.80
2019-03-10T10:38:56.096Z,14.04
2019-03-10T10:39:56.141Z,14.04
2019-03-10T10:40:56.075Z,14.08
2019-03-10T10:41:56.116Z,14.18
2019-03-10T10:42:56.066Z,14.41
2019-03-10T10:43:56.039Z,14.37
2019-03-10T10:44:56.069Z,14.23
2019-03-10T10:45:56.037Z,14.40
2019-03-10T10:46:56.009Z,14.37
2019-03-10T10:47:56.025Z,14.51
2019-03-10T10:48:56.004Z,14.45
2019-03-10T10:49:55.979Z,14.49
2019-03-10T10:50:55.969Z,14.64
2019-03-10T10:51:55.978Z,14.63
2019-03-10T10:52:55.946Z,14.69
2019-03-10T10:53:56.039Z,14.79
2019-03-10T10:54:55.931Z,15.01
2019-03-10T10:55:56.055Z,15.10
2019-03-10T10:56:55.931Z,15.14
2019-03-10T10:57:55.896Z,15.08
2019-03-10T10:58:55.887Z,15.15
2019-03-10T10:59:55.917Z,15.23
2019-03-10T11:00:55.863Z,15.15
2019-03-10T11:01:55.889Z,15.17
2019-03-10T11:02:55.833Z,15.12
2019-03-10T11:03:55.822Z,15.15
2019-03-10T11:04:55.820Z,15.14
2019-03-10T11:05:55.846Z,15.14
2019-03-10T11:06:55.840Z,15.04
2019-03-10T11:07:55.782Z,14.74
2019-03-10T11:08:55.784Z,14.59
2019-03-10T11:09:55.779Z,14.69
2019-03-10T11:10:55.848Z,14.79
2019-03-10T11:11:55.802Z,14.89
2019-03-10T11:12:55.729Z,15.03
2019-03-10T11:13:55.735Z,15.04
2019-03-10T11:14:55.701Z,14.97
2019-03-10T11:15:55.705Z,15.15
2019-03-10T11:16:55.696Z,15.17
2019-03-10T11:17:55.733Z,14.92
2019-03-10T11:18:55.666Z,14.74
2019-03-10T11:19:55.649Z,14.87
2019-03-10T11:20:56.397Z,14.97
2019-03-10T11:21:55.658Z,14.85
2019-03-10T11:22:55.614Z,15.04
2019-03-10T11:23:55.661Z,15.03
2019-03-10T11:24:55.598Z,14.95
2019-03-10T11:25:55.590Z,14.78
2019-03-10T11:26:55.576Z,14.95
2019-03-10T11:27:55.587Z,14.86
2019-03-10T11:28:55.550Z,14.86
2019-03-10T11:29:55.579Z,15.03
2019-03-10T11:30:55.626Z,15.01
2019-03-10T11:31:55.534Z,15.12
2019-03-10T11:32:55.615Z,15.26
2019-03-10T11:33:55.515Z,15.25
2019-03-10T11:34:55.498Z,15.25
2019-03-10T11:35:55.529Z,15.08
2019-03-10T11:36:55.486Z,14.93
2019-03-10T11:37:55.456Z,14.85
2019-03-10T11:38:55.444Z,14.69
2019-03-10T11:39:55.434Z,14.59
2019-03-10T11:40:55.441Z,14.67
2019-03-10T11:41:55.467Z,14.52
2019-03-10T11:42:55.401Z,14.49
2019-03-10T11:43:55.387Z,14.30
2019-03-10T11:44:55.387Z,14.26
2019-03-10T11:45:55.363Z,14.12
2019-03-10T11:46:55.357Z,14.00
2019-03-10T11:47:55.385Z,13.93
2019-03-10T11:48:55.354Z,13.94
2019-03-10T11:49:55.324Z,13.91
2019-03-10T11:50:55.309Z,14.01
2019-03-10T11:51:55.303Z,14.22
2019-03-10T11:52:55.304Z,14.41
2019-03-10T11:53:55.346Z,14.67
2019-03-10T11:54:55.267Z,14.85
2019-03-10T11:55:55.257Z,14.89
2019-03-10T11:56:55.245Z,14.87
2019-03-10T11:57:55.234Z,14.87
2019-03-10T11:58:55.256Z,15.15
2019-03-10T11:59:55.253Z,15.22
2019-03-10T12:00:55.203Z,15.15
2019-03-10T12:01:55.194Z,15.26
2019-03-10T12:02:55.182Z,15.26
2019-03-10T12:03:55.174Z,15.29
2019-03-10T12:04:55.187Z,15.32
2019-03-10T12:05:55.184Z,15.25
2019-03-10T12:06:55.135Z,15.26
2019-03-10T12:07:55.126Z,15.32
2019-03-10T12:08:55.116Z,15.07
2019-03-10T12:09:55.106Z,15.15
2019-03-10T12:10:55.109Z,14.96
2019-03-10T12:11:55.134Z,15.07
2019-03-10T12:12:55.071Z,15.12
2019-03-10T12:13:55.061Z,14.96
2019-03-10T12:14:55.047Z,14.71
2019-03-10T12:15:55.037Z,14.55
2019-03-10T12:16:55.027Z,14.38
2019-03-10T12:17:55.091Z,14.33
2019-03-10T12:18:55.026Z,14.40
2019-03-10T12:19:54.998Z,14.58
2019-03-10T12:20:55.034Z,14.77
2019-03-10T12:21:56.167Z,14.61
2019-03-10T12:22:54.968Z,14.27
2019-03-10T12:23:55.029Z,14.11
2019-03-10T12:24:54.946Z,14.09
2019-03-10T12:25:54.929Z,13.90
2019-03-10T12:26:54.920Z,14.34
2019-03-10T12:27:54.916Z,14.64
2019-03-10T12:28:54.900Z,14.63
2019-03-10T12:29:54.948Z,14.26
2019-03-10T12:30:54.876Z,14.33
2019-03-10T12:31:54.868Z,14.37
2019-03-10T12:32:54.882Z,14.03
2019-03-10T12:33:54.894Z,14.08
2019-03-10T12:34:54.835Z,14.41
2019-03-10T12:35:54.867Z,14.61
2019-03-10T12:36:54.839Z,14.13
2019-03-10T12:37:54.804Z,13.75
2019-03-10T12:38:54.799Z,13.72
2019-03-10T12:39:54.784Z,14.23
2019-03-10T12:40:54.773Z,14.44
2019-03-10T12:41:58.689Z,13.83
2019-03-10T12:42:54.758Z,14.51
2019-03-10T12:43:54.766Z,14.37
2019-03-10T12:44:54.809Z,14.38
2019-03-10T12:45:54.721Z,14.64
2019-03-10T12:46:54.707Z,14.78
2019-03-10T12:47:54.738Z,14.64
2019-03-10T12:48:55.333Z,14.09
2019-03-10T12:49:55.116Z,14.26
2019-03-10T12:50:55.641Z,14.49
2019-03-10T12:51:54.646Z,14.89
2019-03-10T12:52:54.648Z,15.30
2019-03-10T12:53:54.667Z,15.05
2019-03-10T12:54:54.629Z,14.34
2019-03-10T12:55:54.620Z,13.83
2019-03-10T12:56:54.609Z,13.61
2019-03-10T12:57:54.581Z,13.58
2019-03-10T12:58:54.625Z,13.36
2019-03-10T12:59:54.596Z,13.26
2019-03-10T13:01:05.316Z,13.17
2019-03-10T13:01:55.566Z,13.43
2019-03-10T13:02:54.524Z,13.47
2019-03-10T13:03:58.938Z,13.61
2019-03-10T13:04:54.502Z,13.54
2019-03-10T13:05:54.548Z,13.49
2019-03-10T13:06:54.596Z,14.64